sensor_id;sensor_type;location;lat;lon;timestamp;temperature;humidity
1461;DHT22;724;49.910;12.530;2023-05-15T00:00:17;8.60;1.00
1461;DHT22;724;49.910;12.530;2023-05-15T00:02:43;8.50;1.00
1461;DHT22;724;49.910;12.530;2023-05-15T00:05:11;8.60;1.00
1461;DHT22;724;49.910;12.530;2023-05-15T00:07:39;8.70;99.90
1461;DHT22;724;49.910;12.530;2023-05-15T00:10:06;8.60;99.90
1461;DHT22;724;49.910;12.530;2023-05-15T00:12:33;8.50;1.00
1461;DHT22;724;49.910;12.530;2023-05-15T00:15:01;8.40;1.00
1461;DHT22;724;49.910;12.530;2023-05-15T00:17:29;8.40;1.00
1461;DHT22;724;49.910;12.530;2023-05-15T00:19:56;8.50;99.90
1461;DHT22;724;49.910;12.530;2023-05-15T00:22:24;8.50;99.90
1461;DHT22;724;49.910;12.530;2023-05-15T00:24:51;8.60;1.40
1461;DHT22;724;49.910;12.530;2023-05-15T00:27:18;8.60;1.00
1461;DHT22;724;49.910;12.530;2023-05-15T00:29:45;8.60;1.00
1461;DHT22;724;49.910;12.530;2023-05-15T00:32:11;8.50;1.00
1461;DHT22;724;49.910;12.530;2023-05-15T00:34:39;8.50;1.00
1461;DHT22;724;49.910;12.530;2023-05-15T00:37:06;8.50;1.00
1461;DHT22;724;49.910;12.530;2023-05-15T00:39:34;8.40;61.70
1461;DHT22;724;49.910;12.530;2023-05-15T00:42:02;8.40;99.90
1461;DHT22;724;49.910;12.530;2023-05-15T00:44:30;8.40;99.90
1461;DHT22;724;49.910;12.530;2023-05-15T00:46:58;8.50;99.90
1461;DHT22;724;49.910;12.530;2023-05-15T00:49:27;8.50;99.90
1461;DHT22;724;49.910;12.530;2023-05-15T00:51:56;8.50;99.90
1461;DHT22;724;49.910;12.530;2023-05-15T00:54:26;8.40;99.90
1461;DHT22;724;49.910;12.530;2023-05-15T00:56:55;8.40;99.90
1461;DHT22;724;49.910;12.530;2023-05-15T00:59:24;8.30;1.00
1461;DHT22;724;49.910;12.530;2023-05-15T01:01:51;8.30;1.00
1461;DHT22;724;49.910;12.530;2023-05-15T01:04:18;8.40;1.00
1461;DHT22;724;49.910;12.530;2023-05-15T01:06:45;8.40;1.00
1461;DHT22;724;49.910;12.530;2023-05-15T01:09:14;8.50;1.00
1461;DHT22;724;49.910;12.530;2023-05-15T01:11:41;8.50;99.90
1461;DHT22;724;49.910;12.530;2023-05-15T01:14:09;8.40;99.90
1461;DHT22;724;49.910;12.530;2023-05-15T01:16:36;8.40;99.90
1461;DHT22;724;49.910;12.530;2023-05-15T01:19:03;8.20;1.00
1461;DHT22;724;49.910;12.530;2023-05-15T01:22:08;8.20;1.00
1461;DHT22;724;49.910;12.530;2023-05-15T01:24:53;8.20;1.00
1461;DHT22;724;49.910;12.530;2023-05-15T01:27:28;8.20;1.00
1461;DHT22;724;49.910;12.530;2023-05-15T01:30:01;8.20;51.20
1461;DHT22;724;49.910;12.530;2023-05-15T01:32:42;8.20;99.90
1461;DHT22;724;49.910;12.530;2023-05-15T01:35:12;8.20;99.90
1461;DHT22;724;49.910;12.530;2023-05-15T01:37:43;8.10;99.90
1461;DHT22;724;49.910;12.530;2023-05-15T01:40:13;8.20;99.90
1461;DHT22;724;49.910;12.530;2023-05-15T01:42:49;8.30;99.90
1461;DHT22;724;49.910;12.530;2023-05-15T01:45:17;8.40;99.90
1461;DHT22;724;49.910;12.530;2023-05-15T01:47:46;8.40;20.50
1461;DHT22;724;49.910;12.530;2023-05-15T01:50:16;8.40;1.00
1461;DHT22;724;49.910;12.530;2023-05-15T01:52:46;8.30;1.00
1461;DHT22;724;49.910;12.530;2023-05-15T01:55:15;8.30;1.00
1461;DHT22;724;49.910;12.530;2023-05-15T01:57:46;8.30;1.00
1461;DHT22;724;49.910;12.530;2023-05-15T02:00:14;8.20;99.90
1461;DHT22;724;49.910;12.530;2023-05-15T02:02:42;8.20;99.90
1461;DHT22;724;49.910;12.530;2023-05-15T02:05:09;8.20;99.90
1461;DHT22;724;49.910;12.530;2023-05-15T02:07:37;8.20;99.90
1461;DHT22;724;49.910;12.530;2023-05-15T02:10:05;8.20;99.90
1461;DHT22;724;49.910;12.530;2023-05-15T02:12:32;8.30;99.90
1461;DHT22;724;49.910;12.530;2023-05-15T02:15:02;8.30;99.90
1461;DHT22;724;49.910;12.530;2023-05-15T02:17:29;8.30;99.90
1461;DHT22;724;49.910;12.530;2023-05-15T02:19:56;8.20;1.00
1461;DHT22;724;49.910;12.530;2023-05-15T02:22:22;8.20;1.00
1461;DHT22;724;49.910;12.530;2023-05-15T02:24:49;8.20;1.00
1461;DHT22;724;49.910;12.530;2023-05-15T02:27:19;8.20;1.00
1461;DHT22;724;49.910;12.530;2023-05-15T02:29:56;8.20;1.00
1461;DHT22;724;49.910;12.530;2023-05-15T02:32:30;8.30;1.00
1461;DHT22;724;49.910;12.530;2023-05-15T02:35:10;8.20;1.00
1461;DHT22;724;49.910;12.530;2023-05-15T02:37:40;8.20;1.00
1461;DHT22;724;49.910;12.530;2023-05-15T02:40:11;8.20;1.00
1461;DHT22;724;49.910;12.530;2023-05-15T02:42:39;8.10;1.00
1461;DHT22;724;49.910;12.530;2023-05-15T02:45:07;8.10;1.00
1461;DHT22;724;49.910;12.530;2023-05-15T02:47:36;8.10;1.00
1461;DHT22;724;49.910;12.530;2023-05-15T02:50:05;8.10;1.00
1461;DHT22;724;49.910;12.530;2023-05-15T02:52:33;8.10;1.00
1461;DHT22;724;49.910;12.530;2023-05-15T02:55:00;8.10;1.00
1461;DHT22;724;49.910;12.530;2023-05-15T02:57:27;8.00;1.00
1461;DHT22;724;49.910;12.530;2023-05-15T02:59:54;8.00;1.00
1461;DHT22;724;49.910;12.530;2023-05-15T03:02:21;8.10;1.00
1461;DHT22;724;49.910;12.530;2023-05-15T03:04:49;7.90;1.00
1461;DHT22;724;49.910;12.530;2023-05-15T03:07:16;7.90;56.20
1461;DHT22;724;49.910;12.530;2023-05-15T03:09:43;7.90;99.90
1461;DHT22;724;49.910;12.530;2023-05-15T03:12:09;7.90;99.90
1461;DHT22;724;49.910;12.530;2023-05-15T03:14:36;8.00;99.90
1461;DHT22;724;49.910;12.530;2023-05-15T03:17:03;8.00;96.50
1461;DHT22;724;49.910;12.530;2023-05-15T03:19:30;8.00;59.50
1461;DHT22;724;49.910;12.530;2023-05-15T03:21:58;8.10;29.30
1461;DHT22;724;49.910;12.530;2023-05-15T03:24:25;8.10;16.30
1461;DHT22;724;49.910;12.530;2023-05-15T03:26:52;8.00;1.00
1461;DHT22;724;49.910;12.530;2023-05-15T03:29:18;7.90;22.10
1461;DHT22;724;49.910;12.530;2023-05-15T03:31:45;8.00;99.90
1461;DHT22;724;49.910;12.530;2023-05-15T03:34:12;8.10;99.90
1461;DHT22;724;49.910;12.530;2023-05-15T03:36:39;8.10;88.80
1461;DHT22;724;49.910;12.530;2023-05-15T03:39:07;8.10;9.20
1461;DHT22;724;49.910;12.530;2023-05-15T03:41:33;8.00;14.40
1461;DHT22;724;49.910;12.530;2023-05-15T03:44:00;8.00;47.00
1461;DHT22;724;49.910;12.530;2023-05-15T03:46:27;8.10;81.80
1461;DHT22;724;49.910;12.530;2023-05-15T03:48:54;8.10;69.20
1461;DHT22;724;49.910;12.530;2023-05-15T03:51:21;8.00;71.80
1461;DHT22;724;49.910;12.530;2023-05-15T03:53:48;8.00;99.90
1461;DHT22;724;49.910;12.530;2023-05-15T03:56:17;7.90;99.90
1461;DHT22;724;49.910;12.530;2023-05-15T03:58:43;8.00;99.90
1461;DHT22;724;49.910;12.530;2023-05-15T04:01:10;8.00;99.90
1461;DHT22;724;49.910;12.530;2023-05-15T04:03:37;8.00;99.90
1461;DHT22;724;49.910;12.530;2023-05-15T04:06:04;8.10;99.90
1461;DHT22;724;49.910;12.530;2023-05-15T04:08:31;8.10;99.90
1461;DHT22;724;49.910;12.530;2023-05-15T04:10:58;8.00;99.90
1461;DHT22;724;49.910;12.530;2023-05-15T04:13:26;8.10;99.90
1461;DHT22;724;49.910;12.530;2023-05-15T04:15:53;8.20;99.90
1461;DHT22;724;49.910;12.530;2023-05-15T04:18:20;8.20;10.50
1461;DHT22;724;49.910;12.530;2023-05-15T04:20:47;8.20;1.00
1461;DHT22;724;49.910;12.530;2023-05-15T04:23:14;8.30;1.00
1461;DHT22;724;49.910;12.530;2023-05-15T04:25:40;8.30;1.00
1461;DHT22;724;49.910;12.530;2023-05-15T04:28:11;8.40;1.00
1461;DHT22;724;49.910;12.530;2023-05-15T04:30:39;8.50;1.00
1461;DHT22;724;49.910;12.530;2023-05-15T04:33:06;8.40;99.90
1461;DHT22;724;49.910;12.530;2023-05-15T04:35:33;8.40;99.90
1461;DHT22;724;49.910;12.530;2023-05-15T04:38:00;8.40;99.90
1461;DHT22;724;49.910;12.530;2023-05-15T04:40:27;8.50;99.90
1461;DHT22;724;49.910;12.530;2023-05-15T04:42:54;8.60;99.90
1461;DHT22;724;49.910;12.530;2023-05-15T04:45:21;8.60;99.90
1461;DHT22;724;49.910;12.530;2023-05-15T04:47:51;8.60;99.90
1461;DHT22;724;49.910;12.530;2023-05-15T04:50:18;8.70;99.90
1461;DHT22;724;49.910;12.530;2023-05-15T04:52:44;8.70;68.20
1461;DHT22;724;49.910;12.530;2023-05-15T04:55:11;8.90;1.00
1461;DHT22;724;49.910;12.530;2023-05-15T04:57:38;9.00;1.00
1461;DHT22;724;49.910;12.530;2023-05-15T05:00:06;9.10;1.00
1461;DHT22;724;49.910;12.530;2023-05-15T05:02:36;9.10;1.00
1461;DHT22;724;49.910;12.530;2023-05-15T05:05:05;9.30;99.90
1461;DHT22;724;49.910;12.530;2023-05-15T05:07:33;9.40;99.90
1461;DHT22;724;49.910;12.530;2023-05-15T05:10:00;9.50;90.40
1461;DHT22;724;49.910;12.530;2023-05-15T05:12:27;9.50;1.00
1461;DHT22;724;49.910;12.530;2023-05-15T05:14:54;9.60;1.00
1461;DHT22;724;49.910;12.530;2023-05-15T05:17:21;9.80;1.00
1461;DHT22;724;49.910;12.530;2023-05-15T05:19:48;9.90;1.00
1461;DHT22;724;49.910;12.530;2023-05-15T05:22:16;10.00;99.90
1461;DHT22;724;49.910;12.530;2023-05-15T05:24:42;10.10;99.90
1461;DHT22;724;49.910;12.530;2023-05-15T05:27:09;10.40;99.90
1461;DHT22;724;49.910;12.530;2023-05-15T05:29:36;10.50;1.00
1461;DHT22;724;49.910;12.530;2023-05-15T05:32:04;10.70;1.00
1461;DHT22;724;49.910;12.530;2023-05-15T05:34:31;10.80;1.00
1461;DHT22;724;49.910;12.530;2023-05-15T05:36:58;11.00;1.00
1461;DHT22;724;49.910;12.530;2023-05-15T05:39:27;11.20;1.00
1461;DHT22;724;49.910;12.530;2023-05-15T05:41:54;11.40;99.90
1461;DHT22;724;49.910;12.530;2023-05-15T05:44:21;11.70;99.90
1461;DHT22;724;49.910;12.530;2023-05-15T05:46:48;11.80;1.00
1461;DHT22;724;49.910;12.530;2023-05-15T05:49:15;12.00;1.00
1461;DHT22;724;49.910;12.530;2023-05-15T05:51:44;11.90;1.00
1461;DHT22;724;49.910;12.530;2023-05-15T05:54:11;11.90;1.00
1461;DHT22;724;49.910;12.530;2023-05-15T05:56:40;12.10;1.00
1461;DHT22;724;49.910;12.530;2023-05-15T05:59:07;12.10;1.00
1461;DHT22;724;49.910;12.530;2023-05-15T06:01:34;12.00;1.00
1461;DHT22;724;49.910;12.530;2023-05-15T06:04:01;12.30;1.00
1461;DHT22;724;49.910;12.530;2023-05-15T06:06:28;12.40;1.00
1461;DHT22;724;49.910;12.530;2023-05-15T06:08:55;12.20;1.00
1461;DHT22;724;49.910;12.530;2023-05-15T06:11:22;12.10;1.00
1461;DHT22;724;49.910;12.530;2023-05-15T06:13:50;12.20;1.00
1461;DHT22;724;49.910;12.530;2023-05-15T06:16:17;12.10;99.90
1461;DHT22;724;49.910;12.530;2023-05-15T06:18:43;12.20;99.90
1461;DHT22;724;49.910;12.530;2023-05-15T06:21:10;12.20;99.90
1461;DHT22;724;49.910;12.530;2023-05-15T06:23:37;12.10;99.90
1461;DHT22;724;49.910;12.530;2023-05-15T06:26:04;12.20;99.90
1461;DHT22;724;49.910;12.530;2023-05-15T06:28:31;11.70;99.90
1461;DHT22;724;49.910;12.530;2023-05-15T06:30:59;11.70;1.00
1461;DHT22;724;49.910;12.530;2023-05-15T06:33:26;12.10;1.00
1461;DHT22;724;49.910;12.530;2023-05-15T06:35:52;12.40;1.00
1461;DHT22;724;49.910;12.530;2023-05-15T06:38:19;12.30;99.90
1461;DHT22;724;49.910;12.530;2023-05-15T06:40:46;11.80;99.90
1461;DHT22;724;49.910;12.530;2023-05-15T06:43:12;11.60;1.00
1461;DHT22;724;49.910;12.530;2023-05-15T06:45:39;11.90;1.00
1461;DHT22;724;49.910;12.530;2023-05-15T06:48:07;12.20;1.00
1461;DHT22;724;49.910;12.530;2023-05-15T06:50:34;12.50;99.90
1461;DHT22;724;49.910;12.530;2023-05-15T06:53:01;12.70;99.90
1461;DHT22;724;49.910;12.530;2023-05-15T06:55:27;13.50;99.90
1461;DHT22;724;49.910;12.530;2023-05-15T06:57:54;14.00;99.90
1461;DHT22;724;49.910;12.530;2023-05-15T07:00:21;14.30;99.90
1461;DHT22;724;49.910;12.530;2023-05-15T07:02:48;14.60;19.00
1461;DHT22;724;49.910;12.530;2023-05-15T07:05:16;15.80;1.00
1461;DHT22;724;49.910;12.530;2023-05-15T07:07:43;16.70;1.00
1461;DHT22;724;49.910;12.530;2023-05-15T07:10:10;17.00;1.00
1461;DHT22;724;49.910;12.530;2023-05-15T07:12:37;17.10;1.00
1461;DHT22;724;49.910;12.530;2023-05-15T07:15:04;17.70;1.00
1461;DHT22;724;49.910;12.530;2023-05-15T07:17:32;17.60;1.00
1461;DHT22;724;49.910;12.530;2023-05-15T07:19:59;18.60;1.00
1461;DHT22;724;49.910;12.530;2023-05-15T07:22:27;18.50;1.00
1461;DHT22;724;49.910;12.530;2023-05-15T07:24:54;18.80;1.00
1461;DHT22;724;49.910;12.530;2023-05-15T07:27:21;19.70;1.00
1461;DHT22;724;49.910;12.530;2023-05-15T07:29:47;18.30;1.00
1461;DHT22;724;49.910;12.530;2023-05-15T07:32:14;17.60;1.00
1461;DHT22;724;49.910;12.530;2023-05-15T07:34:41;17.80;1.00
1461;DHT22;724;49.910;12.530;2023-05-15T07:37:08;18.90;1.00
1461;DHT22;724;49.910;12.530;2023-05-15T07:39:36;18.30;1.00
1461;DHT22;724;49.910;12.530;2023-05-15T07:42:03;19.50;1.00
1461;DHT22;724;49.910;12.530;2023-05-15T07:44:30;20.10;1.00
1461;DHT22;724;49.910;12.530;2023-05-15T07:46:57;19.60;1.00
1461;DHT22;724;49.910;12.530;2023-05-15T07:49:24;19.90;1.00
1461;DHT22;724;49.910;12.530;2023-05-15T07:51:51;20.40;99.90
1461;DHT22;724;49.910;12.530;2023-05-15T07:54:18;20.40;99.90
1461;DHT22;724;49.910;12.530;2023-05-15T07:56:46;20.70;99.90
1461;DHT22;724;49.910;12.530;2023-05-15T07:59:13;20.00;99.90
1461;DHT22;724;49.910;12.530;2023-05-15T08:01:40;18.80;99.90
1461;DHT22;724;49.910;12.530;2023-05-15T08:04:07;20.10;99.90
1461;DHT22;724;49.910;12.530;2023-05-15T08:06:34;20.00;99.90
1461;DHT22;724;49.910;12.530;2023-05-15T08:09:02;18.90;99.90
1461;DHT22;724;49.910;12.530;2023-05-15T08:11:29;20.60;99.90
1461;DHT22;724;49.910;12.530;2023-05-15T08:13:57;20.00;99.90
1461;DHT22;724;49.910;12.530;2023-05-15T08:16:24;18.80;99.90
1461;DHT22;724;49.910;12.530;2023-05-15T08:18:51;19.60;99.90
1461;DHT22;724;49.910;12.530;2023-05-15T08:21:22;20.70;99.90
1461;DHT22;724;49.910;12.530;2023-05-15T08:23:49;21.40;99.90
1461;DHT22;724;49.910;12.530;2023-05-15T08:26:16;21.40;99.90
1461;DHT22;724;49.910;12.530;2023-05-15T08:28:43;21.30;99.90
1461;DHT22;724;49.910;12.530;2023-05-15T08:31:11;21.60;99.90
1461;DHT22;724;49.910;12.530;2023-05-15T08:33:37;21.40;99.90
1461;DHT22;724;49.910;12.530;2023-05-15T08:36:05;20.60;99.90
1461;DHT22;724;49.910;12.530;2023-05-15T08:38:31;20.90;99.90
1461;DHT22;724;49.910;12.530;2023-05-15T08:41:03;19.50;99.90
1461;DHT22;724;49.910;12.530;2023-05-15T08:43:35;19.70;99.90
1461;DHT22;724;49.910;12.530;2023-05-15T08:46:04;18.70;99.90
1461;DHT22;724;49.910;12.530;2023-05-15T08:48:35;19.10;99.90
1461;DHT22;724;49.910;12.530;2023-05-15T08:51:05;19.70;99.90
1461;DHT22;724;49.910;12.530;2023-05-15T08:53:34;20.90;99.90
1461;DHT22;724;49.910;12.530;2023-05-15T08:56:02;21.30;99.90
1461;DHT22;724;49.910;12.530;2023-05-15T08:58:29;20.00;99.90
1461;DHT22;724;49.910;12.530;2023-05-15T09:00:56;20.60;99.90
1461;DHT22;724;49.910;12.530;2023-05-15T09:03:24;21.80;99.90
1461;DHT22;724;49.910;12.530;2023-05-15T09:05:53;20.80;99.90
1461;DHT22;724;49.910;12.530;2023-05-15T09:08:21;18.80;99.90
1461;DHT22;724;49.910;12.530;2023-05-15T09:10:51;18.40;99.90
1461;DHT22;724;49.910;12.530;2023-05-15T09:13:18;17.40;99.90
1461;DHT22;724;49.910;12.530;2023-05-15T09:15:45;17.60;99.90
1461;DHT22;724;49.910;12.530;2023-05-15T09:18:14;18.30;99.90
1461;DHT22;724;49.910;12.530;2023-05-15T09:20:40;18.20;99.90
1461;DHT22;724;49.910;12.530;2023-05-15T09:23:23;18.30;99.90
1461;DHT22;724;49.910;12.530;2023-05-15T09:25:50;18.20;99.90
1461;DHT22;724;49.910;12.530;2023-05-15T09:28:27;17.30;99.90
1461;DHT22;724;49.910;12.530;2023-05-15T09:30:59;17.10;99.90
1461;DHT22;724;49.910;12.530;2023-05-15T09:33:27;17.50;99.90
1461;DHT22;724;49.910;12.530;2023-05-15T09:35:55;18.50;99.90
1461;DHT22;724;49.910;12.530;2023-05-15T09:38:23;18.10;99.90
1461;DHT22;724;49.910;12.530;2023-05-15T09:40:50;17.70;99.90
1461;DHT22;724;49.910;12.530;2023-05-15T09:43:27;18.40;99.90
1461;DHT22;724;49.910;12.530;2023-05-15T09:45:54;18.00;99.90
1461;DHT22;724;49.910;12.530;2023-05-15T09:48:21;17.70;99.90
1461;DHT22;724;49.910;12.530;2023-05-15T09:50:48;18.40;99.90
1461;DHT22;724;49.910;12.530;2023-05-15T09:53:15;18.00;99.90
1461;DHT22;724;49.910;12.530;2023-05-15T09:55:44;18.10;99.90
1461;DHT22;724;49.910;12.530;2023-05-15T09:58:14;18.00;99.90
1461;DHT22;724;49.910;12.530;2023-05-15T10:00:42;18.20;99.90
1461;DHT22;724;49.910;12.530;2023-05-15T10:03:10;18.50;99.90
1461;DHT22;724;49.910;12.530;2023-05-15T10:05:37;18.80;99.90
1461;DHT22;724;49.910;12.530;2023-05-15T10:08:04;18.50;99.90
1461;DHT22;724;49.910;12.530;2023-05-15T10:10:32;18.50;99.90
1461;DHT22;724;49.910;12.530;2023-05-15T10:13:00;18.80;99.90
1461;DHT22;724;49.910;12.530;2023-05-15T10:15:29;18.80;99.90
1461;DHT22;724;49.910;12.530;2023-05-15T10:17:57;19.80;99.90
1461;DHT22;724;49.910;12.530;2023-05-15T10:20:24;20.80;99.90
1461;DHT22;724;49.910;12.530;2023-05-15T10:22:53;21.30;99.90
1461;DHT22;724;49.910;12.530;2023-05-15T10:25:25;22.50;99.90
1461;DHT22;724;49.910;12.530;2023-05-15T10:27:53;20.80;99.90
1461;DHT22;724;49.910;12.530;2023-05-15T10:30:21;20.20;97.80
1461;DHT22;724;49.910;12.530;2023-05-15T10:32:49;20.60;99.90
1461;DHT22;724;49.910;12.530;2023-05-15T10:35:16;20.30;92.50
1461;DHT22;724;49.910;12.530;2023-05-15T10:37:46;19.50;69.80
1461;DHT22;724;49.910;12.530;2023-05-15T10:40:14;19.30;64.60
1461;DHT22;724;49.910;12.530;2023-05-15T10:42:44;19.00;66.00
1461;DHT22;724;49.910;12.530;2023-05-15T10:45:12;18.20;60.00
1461;DHT22;724;49.910;12.530;2023-05-15T10:47:42;18.10;64.00
1461;DHT22;724;49.910;12.530;2023-05-15T10:50:11;18.00;72.20
1461;DHT22;724;49.910;12.530;2023-05-15T10:52:38;17.80;65.30
1461;DHT22;724;49.910;12.530;2023-05-15T10:55:06;17.40;60.90
1461;DHT22;724;49.910;12.530;2023-05-15T10:57:34;17.00;62.00
1461;DHT22;724;49.910;12.530;2023-05-15T11:00:02;17.00;76.40
1461;DHT22;724;49.910;12.530;2023-05-15T11:02:30;17.40;78.00
1461;DHT22;724;49.910;12.530;2023-05-15T11:05:05;17.30;69.70
1461;DHT22;724;49.910;12.530;2023-05-15T11:07:32;17.00;74.30
1461;DHT22;724;49.910;12.530;2023-05-15T11:09:59;17.10;92.40
1461;DHT22;724;49.910;12.530;2023-05-15T11:12:56;17.00;94.70
1461;DHT22;724;49.910;12.530;2023-05-15T11:15:23;17.20;99.90
1461;DHT22;724;49.910;12.530;2023-05-15T11:18:04;16.90;99.90
1461;DHT22;724;49.910;12.530;2023-05-15T11:20:37;17.40;99.90
1461;DHT22;724;49.910;12.530;2023-05-15T11:23:04;17.50;99.90
1461;DHT22;724;49.910;12.530;2023-05-15T11:25:32;18.10;99.90
1461;DHT22;724;49.910;12.530;2023-05-15T11:28:01;18.20;99.90
1461;DHT22;724;49.910;12.530;2023-05-15T11:30:35;17.80;97.40
1461;DHT22;724;49.910;12.530;2023-05-15T11:33:04;18.50;93.90
1461;DHT22;724;49.910;12.530;2023-05-15T11:35:36;19.20;99.90
1461;DHT22;724;49.910;12.530;2023-05-15T11:38:09;18.70;92.90
1461;DHT22;724;49.910;12.530;2023-05-15T11:40:43;18.60;75.90
1461;DHT22;724;49.910;12.530;2023-05-15T11:43:16;19.30;69.10
1461;DHT22;724;49.910;12.530;2023-05-15T11:45:45;18.90;62.90
1461;DHT22;724;49.910;12.530;2023-05-15T11:48:14;18.70;44.50
1461;DHT22;724;49.910;12.530;2023-05-15T11:50:43;17.90;39.20
1461;DHT22;724;49.910;12.530;2023-05-15T11:53:10;18.00;56.10
1461;DHT22;724;49.910;12.530;2023-05-15T11:55:38;17.90;55.30
1461;DHT22;724;49.910;12.530;2023-05-15T11:58:10;17.50;62.40
1461;DHT22;724;49.910;12.530;2023-05-15T12:00:37;16.90;69.10
1461;DHT22;724;49.910;12.530;2023-05-15T12:03:04;16.80;76.60
1461;DHT22;724;49.910;12.530;2023-05-15T12:05:30;16.40;40.00
1461;DHT22;724;49.910;12.530;2023-05-15T12:08:00;16.50;47.90
1461;DHT22;724;49.910;12.530;2023-05-15T12:10:26;16.60;50.60
1461;DHT22;724;49.910;12.530;2023-05-15T12:12:53;16.10;63.30
1461;DHT22;724;49.910;12.530;2023-05-15T12:15:20;16.30;85.90
1461;DHT22;724;49.910;12.530;2023-05-15T12:17:47;16.30;99.90
1461;DHT22;724;49.910;12.530;2023-05-15T12:20:16;16.40;99.90
1461;DHT22;724;49.910;12.530;2023-05-15T12:22:44;16.50;99.90
1461;DHT22;724;49.910;12.530;2023-05-15T12:25:14;17.00;99.90
1461;DHT22;724;49.910;12.530;2023-05-15T12:27:42;17.90;99.90
1461;DHT22;724;49.910;12.530;2023-05-15T12:30:09;18.80;99.90
1461;DHT22;724;49.910;12.530;2023-05-15T12:32:37;18.70;99.90
1461;DHT22;724;49.910;12.530;2023-05-15T12:35:05;18.10;93.80
1461;DHT22;724;49.910;12.530;2023-05-15T12:37:32;18.30;88.40
1461;DHT22;724;49.910;12.530;2023-05-15T12:40:01;17.80;74.10
1461;DHT22;724;49.910;12.530;2023-05-15T12:42:38;18.00;83.20
1461;DHT22;724;49.910;12.530;2023-05-15T12:45:12;17.30;57.20
1461;DHT22;724;49.910;12.530;2023-05-15T12:47:40;17.70;71.00
1461;DHT22;724;49.910;12.530;2023-05-15T12:50:12;17.90;73.70
1461;DHT22;724;49.910;12.530;2023-05-15T12:52:40;17.40;71.80
1461;DHT22;724;49.910;12.530;2023-05-15T12:55:15;16.60;74.30
1461;DHT22;724;49.910;12.530;2023-05-15T12:57:43;15.70;82.70
1461;DHT22;724;49.910;12.530;2023-05-15T13:00:11;14.60;99.90
1461;DHT22;724;49.910;12.530;2023-05-15T13:02:42;14.40;99.90
1461;DHT22;724;49.910;12.530;2023-05-15T13:05:09;14.10;99.90
1461;DHT22;724;49.910;12.530;2023-05-15T13:07:36;13.70;99.90
1461;DHT22;724;49.910;12.530;2023-05-15T13:10:04;13.60;99.90
1461;DHT22;724;49.910;12.530;2023-05-15T13:12:35;13.70;99.90
1461;DHT22;724;49.910;12.530;2023-05-15T13:15:04;13.90;99.90
1461;DHT22;724;49.910;12.530;2023-05-15T13:17:32;13.90;99.90
1461;DHT22;724;49.910;12.530;2023-05-15T13:19:59;14.20;99.90
1461;DHT22;724;49.910;12.530;2023-05-15T13:22:26;14.40;99.90
1461;DHT22;724;49.910;12.530;2023-05-15T13:24:53;14.50;99.90
1461;DHT22;724;49.910;12.530;2023-05-15T13:27:19;14.70;99.90
1461;DHT22;724;49.910;12.530;2023-05-15T13:29:46;14.50;99.90
1461;DHT22;724;49.910;12.530;2023-05-15T13:32:14;14.60;99.90
1461;DHT22;724;49.910;12.530;2023-05-15T13:34:41;15.20;99.90
1461;DHT22;724;49.910;12.530;2023-05-15T13:37:08;15.50;99.90
1461;DHT22;724;49.910;12.530;2023-05-15T13:39:35;15.50;99.90
1461;DHT22;724;49.910;12.530;2023-05-15T13:42:02;15.40;99.90
1461;DHT22;724;49.910;12.530;2023-05-15T13:44:28;15.20;99.90
1461;DHT22;724;49.910;12.530;2023-05-15T13:46:56;15.10;99.90
1461;DHT22;724;49.910;12.530;2023-05-15T13:49:29;15.20;99.90
1461;DHT22;724;49.910;12.530;2023-05-15T13:51:56;15.40;99.90
1461;DHT22;724;49.910;12.530;2023-05-15T13:54:23;15.60;99.90
1461;DHT22;724;49.910;12.530;2023-05-15T13:56:50;15.40;99.90
1461;DHT22;724;49.910;12.530;2023-05-15T13:59:17;16.00;99.90
1461;DHT22;724;49.910;12.530;2023-05-15T14:01:44;16.20;99.90
1461;DHT22;724;49.910;12.530;2023-05-15T14:04:11;16.70;99.90
1461;DHT22;724;49.910;12.530;2023-05-15T14:06:39;17.00;99.90
1461;DHT22;724;49.910;12.530;2023-05-15T14:09:05;17.10;99.90
1461;DHT22;724;49.910;12.530;2023-05-15T14:11:32;17.30;99.90
1461;DHT22;724;49.910;12.530;2023-05-15T14:14:00;17.70;99.90
1461;DHT22;724;49.910;12.530;2023-05-15T14:16:26;18.00;99.90
1461;DHT22;724;49.910;12.530;2023-05-15T14:18:53;18.20;99.90
1461;DHT22;724;49.910;12.530;2023-05-15T14:21:20;18.30;99.90
1461;DHT22;724;49.910;12.530;2023-05-15T14:23:49;18.60;99.90
1461;DHT22;724;49.910;12.530;2023-05-15T14:26:15;18.20;99.90
1461;DHT22;724;49.910;12.530;2023-05-15T14:28:42;17.60;99.90
1461;DHT22;724;49.910;12.530;2023-05-15T14:31:09;17.80;99.90
1461;DHT22;724;49.910;12.530;2023-05-15T14:33:36;17.30;99.90
1461;DHT22;724;49.910;12.530;2023-05-15T14:36:03;16.70;99.90
1461;DHT22;724;49.910;12.530;2023-05-15T14:38:30;16.30;99.90
1461;DHT22;724;49.910;12.530;2023-05-15T14:40:59;16.20;99.90
1461;DHT22;724;49.910;12.530;2023-05-15T14:43:26;16.00;99.90
1461;DHT22;724;49.910;12.530;2023-05-15T14:45:54;15.40;99.90
1461;DHT22;724;49.910;12.530;2023-05-15T14:48:21;15.30;99.90
1461;DHT22;724;49.910;12.530;2023-05-15T14:50:48;15.40;99.90
1461;DHT22;724;49.910;12.530;2023-05-15T14:53:15;15.10;99.90
1461;DHT22;724;49.910;12.530;2023-05-15T14:55:42;15.20;99.90
1461;DHT22;724;49.910;12.530;2023-05-15T14:58:10;15.10;99.90
1461;DHT22;724;49.910;12.530;2023-05-15T15:00:37;15.00;99.90
1461;DHT22;724;49.910;12.530;2023-05-15T15:03:04;15.00;99.90
1461;DHT22;724;49.910;12.530;2023-05-15T15:05:30;15.20;99.90
1461;DHT22;724;49.910;12.530;2023-05-15T15:07:59;15.10;99.90
1461;DHT22;724;49.910;12.530;2023-05-15T15:10:27;15.30;99.90
1461;DHT22;724;49.910;12.530;2023-05-15T15:12:54;15.40;99.90
1461;DHT22;724;49.910;12.530;2023-05-15T15:15:22;15.50;99.90
1461;DHT22;724;49.910;12.530;2023-05-15T15:17:49;15.70;99.90
1461;DHT22;724;49.910;12.530;2023-05-15T15:20:17;15.90;99.90
1461;DHT22;724;49.910;12.530;2023-05-15T15:22:44;15.80;99.90
1461;DHT22;724;49.910;12.530;2023-05-15T15:25:11;15.80;99.90
1461;DHT22;724;49.910;12.530;2023-05-15T15:27:38;16.00;99.90
1461;DHT22;724;49.910;12.530;2023-05-15T15:30:07;15.90;99.90
1461;DHT22;724;49.910;12.530;2023-05-15T15:32:36;15.60;99.90
1461;DHT22;724;49.910;12.530;2023-05-15T15:35:03;15.50;99.90
1461;DHT22;724;49.910;12.530;2023-05-15T15:37:31;15.30;99.90
1461;DHT22;724;49.910;12.530;2023-05-15T15:39:59;15.20;99.90
1461;DHT22;724;49.910;12.530;2023-05-15T15:42:26;15.00;99.90
1461;DHT22;724;49.910;12.530;2023-05-15T15:44:53;15.10;99.90
1461;DHT22;724;49.910;12.530;2023-05-15T15:47:22;15.20;99.90
1461;DHT22;724;49.910;12.530;2023-05-15T15:49:50;15.30;99.90
1461;DHT22;724;49.910;12.530;2023-05-15T15:52:18;15.40;99.90
1461;DHT22;724;49.910;12.530;2023-05-15T15:54:45;15.50;99.90
1461;DHT22;724;49.910;12.530;2023-05-15T15:57:12;15.40;99.90
1461;DHT22;724;49.910;12.530;2023-05-15T15:59:39;15.40;99.90
1461;DHT22;724;49.910;12.530;2023-05-15T16:02:06;15.60;99.90
1461;DHT22;724;49.910;12.530;2023-05-15T16:04:33;15.40;99.90
1461;DHT22;724;49.910;12.530;2023-05-15T16:07:02;15.20;99.90
1461;DHT22;724;49.910;12.530;2023-05-15T16:09:29;15.30;99.90
1461;DHT22;724;49.910;12.530;2023-05-15T16:11:56;15.30;99.90
1461;DHT22;724;49.910;12.530;2023-05-15T16:14:23;15.70;99.90
1461;DHT22;724;49.910;12.530;2023-05-15T16:16:51;16.00;99.90